sensor_id;sensor_type;location;lat;lon;timestamp;temperature;humidity
22578;DHT22;11455;52.390;13.028;2023-07-13T00:02:10;22.20;1.00
22578;DHT22;11455;52.390;13.028;2023-07-13T00:04:35;22.40;1.00
22578;DHT22;11455;52.390;13.028;2023-07-13T00:07:01;22.50;1.00
22578;DHT22;11455;52.390;13.028;2023-07-13T00:09:28;22.50;1.00
22578;DHT22;11455;52.390;13.028;2023-07-13T00:11:54;22.50;1.00
22578;DHT22;11455;52.390;13.028;2023-07-13T00:14:20;22.50;1.00
22578;DHT22;11455;52.390;13.028;2023-07-13T00:16:48;22.60;1.00
22578;DHT22;11455;52.390;13.028;2023-07-13T00:19:14;22.60;1.00
22578;DHT22;11455;52.390;13.028;2023-07-13T00:21:40;22.90;1.00
22578;DHT22;11455;52.390;13.028;2023-07-13T00:24:07;23.20;1.00
22578;DHT22;11455;52.390;13.028;2023-07-13T00:26:33;23.50;1.00
22578;DHT22;11455;52.390;13.028;2023-07-13T00:28:59;23.70;1.00
22578;DHT22;11455;52.390;13.028;2023-07-13T00:31:25;23.80;1.00
22578;DHT22;11455;52.390;13.028;2023-07-13T00:33:50;23.30;1.00
22578;DHT22;11455;52.390;13.028;2023-07-13T00:36:16;22.90;1.00
22578;DHT22;11455;52.390;13.028;2023-07-13T00:38:42;22.80;1.00
22578;DHT22;11455;52.390;13.028;2023-07-13T00:41:08;22.60;1.00
22578;DHT22;11455;52.390;13.028;2023-07-13T00:43:35;22.70;1.00
22578;DHT22;11455;52.390;13.028;2023-07-13T00:48:27;23.10;1.00
22578;DHT22;11455;52.390;13.028;2023-07-13T00:50:55;23.30;1.00
22578;DHT22;11455;52.390;13.028;2023-07-13T00:53:21;23.50;1.00
22578;DHT22;11455;52.390;13.028;2023-07-13T00:55:48;23.60;1.00
22578;DHT22;11455;52.390;13.028;2023-07-13T00:58:15;23.60;1.00
22578;DHT22;11455;52.390;13.028;2023-07-13T01:00:41;23.60;1.00
22578;DHT22;11455;52.390;13.028;2023-07-13T01:03:07;23.60;1.00
22578;DHT22;11455;52.390;13.028;2023-07-13T01:05:33;23.60;1.00
22578;DHT22;11455;52.390;13.028;2023-07-13T01:07:59;23.60;1.00
22578;DHT22;11455;52.390;13.028;2023-07-13T01:10:26;23.60;1.00
22578;DHT22;11455;52.390;13.028;2023-07-13T01:12:51;23.60;1.00
22578;DHT22;11455;52.390;13.028;2023-07-13T01:18:09;23.60;1.00
22578;DHT22;11455;52.390;13.028;2023-07-13T01:20:35;23.60;1.00
22578;DHT22;11455;52.390;13.028;2023-07-13T01:23:11;23.50;1.00
22578;DHT22;11455;52.390;13.028;2023-07-13T01:25:38;23.50;1.00
22578;DHT22;11455;52.390;13.028;2023-07-13T01:28:05;23.50;1.00
22578;DHT22;11455;52.390;13.028;2023-07-13T01:30:31;23.40;1.00
22578;DHT22;11455;52.390;13.028;2023-07-13T01:32:57;23.30;1.00
22578;DHT22;11455;52.390;13.028;2023-07-13T01:35:25;23.10;1.00
22578;DHT22;11455;52.390;13.028;2023-07-13T01:37:52;23.10;1.00
22578;DHT22;11455;52.390;13.028;2023-07-13T01:40:22;22.70;1.00
22578;DHT22;11455;52.390;13.028;2023-07-13T01:42:48;22.50;1.00
22578;DHT22;11455;52.390;13.028;2023-07-13T01:45:13;22.40;1.00
22578;DHT22;11455;52.390;13.028;2023-07-13T01:47:39;22.50;1.00
22578;DHT22;11455;52.390;13.028;2023-07-13T01:50:07;22.70;1.00
22578;DHT22;11455;52.390;13.028;2023-07-13T01:52:33;22.70;1.00
22578;DHT22;11455;52.390;13.028;2023-07-13T01:54:58;22.70;1.00
22578;DHT22;11455;52.390;13.028;2023-07-13T01:57:24;22.70;1.00
22578;DHT22;11455;52.390;13.028;2023-07-13T01:59:50;22.70;1.00
22578;DHT22;11455;52.390;13.028;2023-07-13T02:02:15;22.80;1.00
22578;DHT22;11455;52.390;13.028;2023-07-13T02:04:41;23.00;1.00
22578;DHT22;11455;52.390;13.028;2023-07-13T02:07:07;22.90;1.00
22578;DHT22;11455;52.390;13.028;2023-07-13T02:09:33;22.80;1.00
22578;DHT22;11455;52.390;13.028;2023-07-13T02:12:00;22.70;1.00
22578;DHT22;11455;52.390;13.028;2023-07-13T02:14:30;22.70;1.00
22578;DHT22;11455;52.390;13.028;2023-07-13T02:16:56;22.70;1.00
22578;DHT22;11455;52.390;13.028;2023-07-13T02:19:24;22.90;1.00
22578;DHT22;11455;52.390;13.028;2023-07-13T02:21:50;23.00;1.00
22578;DHT22;11455;52.390;13.028;2023-07-13T02:24:16;23.20;1.00
22578;DHT22;11455;52.390;13.028;2023-07-13T02:26:45;23.00;1.00
22578;DHT22;11455;52.390;13.028;2023-07-13T02:29:11;22.90;1.00
22578;DHT22;11455;52.390;13.028;2023-07-13T02:31:37;22.90;1.00
22578;DHT22;11455;52.390;13.028;2023-07-13T02:34:02;22.80;1.00
22578;DHT22;11455;52.390;13.028;2023-07-13T02:36:29;22.60;1.00
22578;DHT22;11455;52.390;13.028;2023-07-13T02:38:55;22.60;1.00
22578;DHT22;11455;52.390;13.028;2023-07-13T02:41:21;22.30;1.00
22578;DHT22;11455;52.390;13.028;2023-07-13T02:43:48;22.30;1.00
22578;DHT22;11455;52.390;13.028;2023-07-13T02:46:14;22.50;1.00
22578;DHT22;11455;52.390;13.028;2023-07-13T02:48:40;22.70;1.00
22578;DHT22;11455;52.390;13.028;2023-07-13T02:51:06;22.90;1.00
22578;DHT22;11455;52.390;13.028;2023-07-13T02:53:32;23.00;1.00
22578;DHT22;11455;52.390;13.028;2023-07-13T02:55:58;23.00;1.00
22578;DHT22;11455;52.390;13.028;2023-07-13T02:58:24;23.00;1.00
22578;DHT22;11455;52.390;13.028;2023-07-13T03:00:51;23.00;1.00
22578;DHT22;11455;52.390;13.028;2023-07-13T03:03:16;23.00;1.00
22578;DHT22;11455;52.390;13.028;2023-07-13T03:05:43;22.90;1.00
22578;DHT22;11455;52.390;13.028;2023-07-13T03:08:12;22.80;1.00
22578;DHT22;11455;52.390;13.028;2023-07-13T03:10:40;22.80;1.00
22578;DHT22;11455;52.390;13.028;2023-07-13T03:13:08;22.70;1.00
22578;DHT22;11455;52.390;13.028;2023-07-13T03:15:37;22.80;1.00
22578;DHT22;11455;52.390;13.028;2023-07-13T03:18:03;22.60;1.00
22578;DHT22;11455;52.390;13.028;2023-07-13T03:20:28;22.50;1.00
22578;DHT22;11455;52.390;13.028;2023-07-13T03:22:54;22.20;1.00
22578;DHT22;11455;52.390;13.028;2023-07-13T03:25:20;22.10;1.00
22578;DHT22;11455;52.390;13.028;2023-07-13T03:27:47;22.30;1.00
22578;DHT22;11455;52.390;13.028;2023-07-13T03:30:13;22.50;1.00
22578;DHT22;11455;52.390;13.028;2023-07-13T03:32:40;22.40;1.00
22578;DHT22;11455;52.390;13.028;2023-07-13T03:35:06;22.30;1.00
22578;DHT22;11455;52.390;13.028;2023-07-13T03:37:32;22.30;1.00
22578;DHT22;11455;52.390;13.028;2023-07-13T03:39:58;22.40;1.00
22578;DHT22;11455;52.390;13.028;2023-07-13T03:42:25;22.40;1.00
22578;DHT22;11455;52.390;13.028;2023-07-13T03:44:51;22.40;1.00
22578;DHT22;11455;52.390;13.028;2023-07-13T03:47:18;22.00;1.00
22578;DHT22;11455;52.390;13.028;2023-07-13T03:49:45;21.90;1.00
22578;DHT22;11455;52.390;13.028;2023-07-13T03:52:12;21.80;1.00
22578;DHT22;11455;52.390;13.028;2023-07-13T03:54:41;21.90;1.00
22578;DHT22;11455;52.390;13.028;2023-07-13T03:57:07;22.10;1.00
22578;DHT22;11455;52.390;13.028;2023-07-13T03:59:35;22.30;1.00
22578;DHT22;11455;52.390;13.028;2023-07-13T04:02:03;22.60;1.00
22578;DHT22;11455;52.390;13.028;2023-07-13T04:04:32;22.70;1.00
22578;DHT22;11455;52.390;13.028;2023-07-13T04:06:58;22.70;1.00
22578;DHT22;11455;52.390;13.028;2023-07-13T04:09:26;22.80;1.00
22578;DHT22;11455;52.390;13.028;2023-07-13T04:11:52;22.70;1.00
22578;DHT22;11455;52.390;13.028;2023-07-13T04:14:20;22.80;1.00
22578;DHT22;11455;52.390;13.028;2023-07-13T04:16:48;22.80;1.00
22578;DHT22;11455;52.390;13.028;2023-07-13T04:19:13;22.80;1.00
22578;DHT22;11455;52.390;13.028;2023-07-13T04:21:39;22.60;1.00
22578;DHT22;11455;52.390;13.028;2023-07-13T04:24:04;22.80;1.00
22578;DHT22;11455;52.390;13.028;2023-07-13T04:26:30;22.90;1.00
22578;DHT22;11455;52.390;13.028;2023-07-13T04:28:56;23.00;1.00
22578;DHT22;11455;52.390;13.028;2023-07-13T04:31:22;23.00;1.00
22578;DHT22;11455;52.390;13.028;2023-07-13T04:33:48;23.00;1.00
22578;DHT22;11455;52.390;13.028;2023-07-13T04:36:13;22.90;1.00
22578;DHT22;11455;52.390;13.028;2023-07-13T04:38:39;22.80;1.00
22578;DHT22;11455;52.390;13.028;2023-07-13T04:41:06;22.80;1.00
22578;DHT22;11455;52.390;13.028;2023-07-13T04:43:35;22.80;1.00
22578;DHT22;11455;52.390;13.028;2023-07-13T04:46:07;22.80;1.00
22578;DHT22;11455;52.390;13.028;2023-07-13T04:48:34;22.90;1.00
22578;DHT22;11455;52.390;13.028;2023-07-13T04:51:08;22.80;1.00
22578;DHT22;11455;52.390;13.028;2023-07-13T04:53:34;22.80;1.00
22578;DHT22;11455;52.390;13.028;2023-07-13T04:56:00;22.60;1.00
22578;DHT22;11455;52.390;13.028;2023-07-13T04:58:26;22.50;1.00
22578;DHT22;11455;52.390;13.028;2023-07-13T05:00:54;22.50;1.00
22578;DHT22;11455;52.390;13.028;2023-07-13T05:03:24;22.60;1.00
22578;DHT22;11455;52.390;13.028;2023-07-13T05:05:57;22.70;1.00
22578;DHT22;11455;52.390;13.028;2023-07-13T05:08:22;22.60;1.00
22578;DHT22;11455;52.390;13.028;2023-07-13T05:10:48;22.40;1.00
22578;DHT22;11455;52.390;13.028;2023-07-13T05:13:14;22.40;1.00
22578;DHT22;11455;52.390;13.028;2023-07-13T05:15:39;22.40;1.00
22578;DHT22;11455;52.390;13.028;2023-07-13T05:18:05;22.40;1.00
22578;DHT22;11455;52.390;13.028;2023-07-13T05:20:35;22.50;1.00
22578;DHT22;11455;52.390;13.028;2023-07-13T05:23:01;22.40;1.00
22578;DHT22;11455;52.390;13.028;2023-07-13T05:25:26;22.30;1.00
22578;DHT22;11455;52.390;13.028;2023-07-13T05:27:52;22.40;1.00
22578;DHT22;11455;52.390;13.028;2023-07-13T05:30:17;22.50;1.00
22578;DHT22;11455;52.390;13.028;2023-07-13T05:32:43;22.50;1.00
22578;DHT22;11455;52.390;13.028;2023-07-13T05:35:09;22.60;1.00
22578;DHT22;11455;52.390;13.028;2023-07-13T05:37:34;22.50;1.00
22578;DHT22;11455;52.390;13.028;2023-07-13T05:40:00;22.60;1.00
22578;DHT22;11455;52.390;13.028;2023-07-13T05:42:26;22.60;1.00
22578;DHT22;11455;52.390;13.028;2023-07-13T05:44:51;22.60;1.00
22578;DHT22;11455;52.390;13.028;2023-07-13T05:47:19;22.60;1.00
22578;DHT22;11455;52.390;13.028;2023-07-13T05:49:45;22.60;1.00
22578;DHT22;11455;52.390;13.028;2023-07-13T05:52:13;22.40;1.00
22578;DHT22;11455;52.390;13.028;2023-07-13T05:54:39;22.20;1.00
22578;DHT22;11455;52.390;13.028;2023-07-13T05:57:04;22.00;1.00
22578;DHT22;11455;52.390;13.028;2023-07-13T05:59:30;21.80;1.00
22578;DHT22;11455;52.390;13.028;2023-07-13T06:01:56;21.80;1.00
22578;DHT22;11455;52.390;13.028;2023-07-13T06:04:22;21.80;1.00
22578;DHT22;11455;52.390;13.028;2023-07-13T06:06:47;21.80;1.00
22578;DHT22;11455;52.390;13.028;2023-07-13T06:09:15;21.70;1.00
22578;DHT22;11455;52.390;13.028;2023-07-13T06:11:41;21.70;1.00
22578;DHT22;11455;52.390;13.028;2023-07-13T06:14:06;21.70;1.00
22578;DHT22;11455;52.390;13.028;2023-07-13T06:16:32;21.90;1.00
22578;DHT22;11455;52.390;13.028;2023-07-13T06:18:58;22.00;1.00
22578;DHT22;11455;52.390;13.028;2023-07-13T06:21:23;22.00;1.00
22578;DHT22;11455;52.390;13.028;2023-07-13T06:23:50;22.10;1.00
22578;DHT22;11455;52.390;13.028;2023-07-13T06:26:17;22.20;1.00
22578;DHT22;11455;52.390;13.028;2023-07-13T06:28:43;22.20;1.00
22578;DHT22;11455;52.390;13.028;2023-07-13T06:31:12;22.20;1.00
22578;DHT22;11455;52.390;13.028;2023-07-13T06:33:38;22.30;1.00
22578;DHT22;11455;52.390;13.028;2023-07-13T06:36:04;22.30;1.00
22578;DHT22;11455;52.390;13.028;2023-07-13T06:38:30;22.20;1.00
22578;DHT22;11455;52.390;13.028;2023-07-13T06:40:56;22.30;1.00
22578;DHT22;11455;52.390;13.028;2023-07-13T06:43:22;22.30;1.00
22578;DHT22;11455;52.390;13.028;2023-07-13T06:45:48;22.20;1.00
22578;DHT22;11455;52.390;13.028;2023-07-13T06:48:15;22.30;1.00
22578;DHT22;11455;52.390;13.028;2023-07-13T06:50:41;22.30;1.00
22578;DHT22;11455;52.390;13.028;2023-07-13T06:53:07;22.30;1.00
22578;DHT22;11455;52.390;13.028;2023-07-13T06:55:32;22.40;1.00
22578;DHT22;11455;52.390;13.028;2023-07-13T06:58:00;22.40;1.00
22578;DHT22;11455;52.390;13.028;2023-07-13T07:00:26;22.50;1.00
22578;DHT22;11455;52.390;13.028;2023-07-13T07:02:52;22.40;1.00
22578;DHT22;11455;52.390;13.028;2023-07-13T07:05:17;22.40;1.00
22578;DHT22;11455;52.390;13.028;2023-07-13T07:07:47;22.40;1.00
22578;DHT22;11455;52.390;13.028;2023-07-13T07:10:13;22.40;1.00
22578;DHT22;11455;52.390;13.028;2023-07-13T07:12:38;22.40;1.00
22578;DHT22;11455;52.390;13.028;2023-07-13T07:15:04;22.50;1.00
22578;DHT22;11455;52.390;13.028;2023-07-13T07:17:30;22.50;1.00
22578;DHT22;11455;52.390;13.028;2023-07-13T07:19:56;22.40;1.00
22578;DHT22;11455;52.390;13.028;2023-07-13T07:22:24;22.30;1.00
22578;DHT22;11455;52.390;13.028;2023-07-13T07:24:55;22.30;1.00
22578;DHT22;11455;52.390;13.028;2023-07-13T07:27:21;22.40;1.00
22578;DHT22;11455;52.390;13.028;2023-07-13T07:29:47;22.30;1.00
22578;DHT22;11455;52.390;13.028;2023-07-13T07:32:12;22.40;1.00
22578;DHT22;11455;52.390;13.028;2023-07-13T07:34:38;22.50;1.00
22578;DHT22;11455;52.390;13.028;2023-07-13T07:37:04;22.60;1.00
22578;DHT22;11455;52.390;13.028;2023-07-13T07:39:30;22.70;1.00
22578;DHT22;11455;52.390;13.028;2023-07-13T07:41:55;22.80;1.00
22578;DHT22;11455;52.390;13.028;2023-07-13T07:44:21;22.80;1.00
22578;DHT22;11455;52.390;13.028;2023-07-13T07:46:47;22.90;1.00
22578;DHT22;11455;52.390;13.028;2023-07-13T07:49:13;22.80;1.00
22578;DHT22;11455;52.390;13.028;2023-07-13T07:51:38;22.70;1.00
22578;DHT22;11455;52.390;13.028;2023-07-13T07:54:04;22.80;1.00
22578;DHT22;11455;52.390;13.028;2023-07-13T07:56:30;22.80;1.00
22578;DHT22;11455;52.390;13.028;2023-07-13T07:58:56;22.90;1.00
22578;DHT22;11455;52.390;13.028;2023-07-13T08:01:22;22.90;1.00
22578;DHT22;11455;52.390;13.028;2023-07-13T08:03:48;23.00;1.00
22578;DHT22;11455;52.390;13.028;2023-07-13T08:06:13;23.00;1.00
22578;DHT22;11455;52.390;13.028;2023-07-13T08:08:42;22.90;1.00
22578;DHT22;11455;52.390;13.028;2023-07-13T08:11:08;22.80;1.00
22578;DHT22;11455;52.390;13.028;2023-07-13T08:13:35;22.80;1.00
22578;DHT22;11455;52.390;13.028;2023-07-13T08:16:00;22.70;1.00
22578;DHT22;11455;52.390;13.028;2023-07-13T08:18:29;22.60;1.00
22578;DHT22;11455;52.390;13.028;2023-07-13T08:20:54;22.60;1.00
22578;DHT22;11455;52.390;13.028;2023-07-13T08:23:24;22.80;1.00
22578;DHT22;11455;52.390;13.028;2023-07-13T08:25:54;22.80;1.00
22578;DHT22;11455;52.390;13.028;2023-07-13T08:28:20;23.00;1.00
22578;DHT22;11455;52.390;13.028;2023-07-13T08:30:48;23.10;1.00
22578;DHT22;11455;52.390;13.028;2023-07-13T08:33:21;23.10;1.00
22578;DHT22;11455;52.390;13.028;2023-07-13T08:35:47;22.90;1.00
22578;DHT22;11455;52.390;13.028;2023-07-13T08:38:13;22.90;1.00
22578;DHT22;11455;52.390;13.028;2023-07-13T08:40:39;23.20;1.00
22578;DHT22;11455;52.390;13.028;2023-07-13T08:43:04;23.40;1.00
22578;DHT22;11455;52.390;13.028;2023-07-13T08:45:33;23.50;1.00
22578;DHT22;11455;52.390;13.028;2023-07-13T08:48:13;23.50;1.00
22578;DHT22;11455;52.390;13.028;2023-07-13T08:51:24;23.50;1.00
22578;DHT22;11455;52.390;13.028;2023-07-13T08:53:36;23.60;1.00
22578;DHT22;11455;52.390;13.028;2023-07-13T08:56:04;23.50;1.00
22578;DHT22;11455;52.390;13.028;2023-07-13T08:58:30;23.60;1.00
22578;DHT22;11455;52.390;13.028;2023-07-13T09:01:16;23.60;1.00
22578;DHT22;11455;52.390;13.028;2023-07-13T09:06:23;23.30;1.00
22578;DHT22;11455;52.390;13.028;2023-07-13T09:14:13;23.50;1.00
22578;DHT22;11455;52.390;13.028;2023-07-13T09:16:45;23.50;1.00
22578;DHT22;11455;52.390;13.028;2023-07-13T09:19:15;23.50;1.00
22578;DHT22;11455;52.390;13.028;2023-07-13T09:21:44;23.40;1.00
22578;DHT22;11455;52.390;13.028;2023-07-13T09:24:55;23.40;1.00
22578;DHT22;11455;52.390;13.028;2023-07-13T09:26:59;23.30;1.00
22578;DHT22;11455;52.390;13.028;2023-07-13T09:29:29;23.30;1.00
22578;DHT22;11455;52.390;13.028;2023-07-13T09:31:56;23.50;1.00
22578;DHT22;11455;52.390;13.028;2023-07-13T09:34:23;23.60;1.00
22578;DHT22;11455;52.390;13.028;2023-07-13T09:36:49;23.90;1.00
22578;DHT22;11455;52.390;13.028;2023-07-13T09:41:54;23.70;1.00
22578;DHT22;11455;52.390;13.028;2023-07-13T09:44:36;23.70;1.00
22578;DHT22;11455;52.390;13.028;2023-07-13T09:49:42;23.90;1.00
22578;DHT22;11455;52.390;13.028;2023-07-13T09:52:14;23.90;1.00
22578;DHT22;11455;52.390;13.028;2023-07-13T09:54:43;23.80;1.00
22578;DHT22;11455;52.390;13.028;2023-07-13T09:57:13;23.80;1.00
22578;DHT22;11455;52.390;13.028;2023-07-13T09:59:40;23.90;1.00
22578;DHT22;11455;52.390;13.028;2023-07-13T10:02:29;24.00;1.00
22578;DHT22;11455;52.390;13.028;2023-07-13T10:05:00;24.00;1.00
22578;DHT22;11455;52.390;13.028;2023-07-13T10:07:26;24.10;1.00
22578;DHT22;11455;52.390;13.028;2023-07-13T10:09:54;24.20;1.00
22578;DHT22;11455;52.390;13.028;2023-07-13T10:12:21;24.30;1.00
22578;DHT22;11455;52.390;13.028;2023-07-13T10:14:49;24.30;1.00
22578;DHT22;11455;52.390;13.028;2023-07-13T10:17:15;24.30;1.00
22578;DHT22;11455;52.390;13.028;2023-07-13T10:19:43;24.30;1.00
22578;DHT22;11455;52.390;13.028;2023-07-13T10:24:55;24.30;1.00
22578;DHT22;11455;52.390;13.028;2023-07-13T10:27:23;24.20;1.00
22578;DHT22;11455;52.390;13.028;2023-07-13T10:30:15;24.20;1.00
22578;DHT22;11455;52.390;13.028;2023-07-13T10:32:39;24.30;1.00
22578;DHT22;11455;52.390;13.028;2023-07-13T10:35:05;24.50;1.00
22578;DHT22;11455;52.390;13.028;2023-07-13T10:40:37;24.70;1.00
22578;DHT22;11455;52.390;13.028;2023-07-13T10:43:06;24.70;99.90
22578;DHT22;11455;52.390;13.028;2023-07-13T10:45:34;24.60;1.00
22578;DHT22;11455;52.390;13.028;2023-07-13T10:48:01;24.60;1.00
22578;DHT22;11455;52.390;13.028;2023-07-13T10:50:28;24.60;1.00
22578;DHT22;11455;52.390;13.028;2023-07-13T10:53:41;24.60;1.00
22578;DHT22;11455;52.390;13.028;2023-07-13T11:00:44;25.00;1.00
22578;DHT22;11455;52.390;13.028;2023-07-13T11:03:13;25.10;99.90
22578;DHT22;11455;52.390;13.028;2023-07-13T11:05:41;25.10;99.90
22578;DHT22;11455;52.390;13.028;2023-07-13T11:08:16;25.00;99.90
22578;DHT22;11455;52.390;13.028;2023-07-13T11:10:47;24.90;99.90
22578;DHT22;11455;52.390;13.028;2023-07-13T11:15:58;25.10;1.00
22578;DHT22;11455;52.390;13.028;2023-07-13T11:18:24;25.20;1.00
22578;DHT22;11455;52.390;13.028;2023-07-13T11:20:50;25.10;99.90
22578;DHT22;11455;52.390;13.028;2023-07-13T11:25:43;25.20;99.90
22578;DHT22;11455;52.390;13.028;2023-07-13T11:38:32;25.40;99.90
22578;DHT22;11455;52.390;13.028;2023-07-13T11:41:01;25.40;99.90
22578;DHT22;11455;52.390;13.028;2023-07-13T11:43:28;25.30;99.90
22578;DHT22;11455;52.390;13.028;2023-07-13T11:45:54;25.30;99.90
22578;DHT22;11455;52.390;13.028;2023-07-13T11:48:21;25.30;99.90
22578;DHT22;11455;52.390;13.028;2023-07-13T11:51:04;25.30;99.90
22578;DHT22;11455;52.390;13.028;2023-07-13T11:53:38;25.40;99.90
22578;DHT22;11455;52.390;13.028;2023-07-13T11:56:07;25.40;99.90
22578;DHT22;11455;52.390;13.028;2023-07-13T11:58:32;25.30;99.90
22578;DHT22;11455;52.390;13.028;2023-07-13T12:01:01;25.30;99.90
22578;DHT22;11455;52.390;13.028;2023-07-13T12:03:30;25.40;99.90
22578;DHT22;11455;52.390;13.028;2023-07-13T12:08:27;25.60;99.90
22578;DHT22;11455;52.390;13.028;2023-07-13T12:11:05;25.80;99.90
22578;DHT22;11455;52.390;13.028;2023-07-13T12:13:35;25.90;99.90
22578;DHT22;11455;52.390;13.028;2023-07-13T12:16:07;25.70;99.90
22578;DHT22;11455;52.390;13.028;2023-07-13T12:18:36;25.70;99.90
22578;DHT22;11455;52.390;13.028;2023-07-13T12:21:01;25.70;99.90
22578;DHT22;11455;52.390;13.028;2023-07-13T12:25:54;25.60;99.90
22578;DHT22;11455;52.390;13.028;2023-07-13T12:28:21;25.50;99.90
22578;DHT22;11455;52.390;13.028;2023-07-13T12:30:47;25.40;99.90
22578;DHT22;11455;52.390;13.028;2023-07-13T12:33:13;25.40;99.90
22578;DHT22;11455;52.390;13.028;2023-07-13T12:35:40;25.30;99.90
22578;DHT22;11455;52.390;13.028;2023-07-13T12:38:08;25.20;99.90
22578;DHT22;11455;52.390;13.028;2023-07-13T12:40:37;25.20;99.90
22578;DHT22;11455;52.390;13.028;2023-07-13T12:43:03;25.10;99.90
22578;DHT22;11455;52.390;13.028;2023-07-13T12:45:32;25.30;99.90
22578;DHT22;11455;52.390;13.028;2023-07-13T12:47:59;25.40;99.90
22578;DHT22;11455;52.390;13.028;2023-07-13T12:50:34;25.40;99.90
22578;DHT22;11455;52.390;13.028;2023-07-13T12:53:03;25.40;99.90
22578;DHT22;11455;52.390;13.028;2023-07-13T12:55:29;25.50;99.90
22578;DHT22;11455;52.390;13.028;2023-07-13T12:57:58;25.60;99.90
22578;DHT22;11455;52.390;13.028;2023-07-13T13:02:54;26.30;99.90
22578;DHT22;11455;52.390;13.028;2023-07-13T13:05:21;26.30;99.90
22578;DHT22;11455;52.390;13.028;2023-07-13T13:07:49;26.50;99.90
22578;DHT22;11455;52.390;13.028;2023-07-13T13:10:15;26.60;99.90
22578;DHT22;11455;52.390;13.028;2023-07-13T13:12:41;26.70;99.90
22578;DHT22;11455;52.390;13.028;2023-07-13T13:15:08;26.80;99.90
22578;DHT22;11455;52.390;13.028;2023-07-13T13:17:34;26.60;99.90
22578;DHT22;11455;52.390;13.028;2023-07-13T13:20:00;26.40;99.90
22578;DHT22;11455;52.390;13.028;2023-07-13T13:22:25;26.20;99.90
22578;DHT22;11455;52.390;13.028;2023-07-13T13:24:51;26.10;99.90
22578;DHT22;11455;52.390;13.028;2023-07-13T13:27:18;26.10;99.90
22578;DHT22;11455;52.390;13.028;2023-07-13T13:29:45;26.10;99.90
22578;DHT22;11455;52.390;13.028;2023-07-13T13:32:14;26.00;99.90
22578;DHT22;11455;52.390;13.028;2023-07-13T13:34:42;26.10;99.90
22578;DHT22;11455;52.390;13.028;2023-07-13T13:37:18;26.30;99.90
22578;DHT22;11455;52.390;13.028;2023-07-13T13:39:44;26.50;99.90
22578;DHT22;11455;52.390;13.028;2023-07-13T13:42:10;26.70;99.90
22578;DHT22;11455;52.390;13.028;2023-07-13T13:44:36;26.80;99.90
22578;DHT22;11455;52.390;13.028;2023-07-13T13:47:02;26.90;99.90
22578;DHT22;11455;52.390;13.028;2023-07-13T13:49:30;26.80;99.90
22578;DHT22;11455;52.390;13.028;2023-07-13T13:51:56;26.80;99.90
22578;DHT22;11455;52.390;13.028;2023-07-13T13:54:22;26.80;99.90
22578;DHT22;11455;52.390;13.028;2023-07-13T13:56:49;26.50;99.90
22578;DHT22;11455;52.390;13.028;2023-07-13T13:59:15;26.20;99.90
22578;DHT22;11455;52.390;13.028;2023-07-13T14:01:42;26.20;99.90
22578;DHT22;11455;52.390;13.028;2023-07-13T14:04:10;26.30;99.90
22578;DHT22;11455;52.390;13.028;2023-07-13T14:06:38;26.40;99.90
22578;DHT22;11455;52.390;13.028;2023-07-13T14:09:04;26.40;99.90
22578;DHT22;11455;52.390;13.028;2023-07-13T14:11:30;26.60;99.90
22578;DHT22;11455;52.390;13.028;2023-07-13T14:13:57;27.00;99.90
22578;DHT22;11455;52.390;13.028;2023-07-13T14:16:25;27.30;99.90
22578;DHT22;11455;52.390;13.028;2023-07-13T14:18:53;27.30;99.90
22578;DHT22;11455;52.390;13.028;2023-07-13T14:21:20;27.40;99.90
22578;DHT22;11455;52.390;13.028;2023-07-13T14:23:46;27.40;99.90
22578;DHT22;11455;52.390;13.028;2023-07-13T14:26:13;27.50;99.90
22578;DHT22;11455;52.390;13.028;2023-07-13T14:28:44;27.60;99.90
22578;DHT22;11455;52.390;13.028;2023-07-13T14:31:12;27.60;99.90
22578;DHT22;11455;52.390;13.028;2023-07-13T14:33:38;27.60;99.90
22578;DHT22;11455;52.390;13.028;2023-07-13T14:36:48;27.60;99.90
22578;DHT22;11455;52.390;13.028;2023-07-13T14:38:55;27.50;99.90
22578;DHT22;11455;52.390;13.028;2023-07-13T14:41:21;27.50;99.90
22578;DHT22;11455;52.390;13.028;2023-07-13T14:43:47;27.40;99.90
22578;DHT22;11455;52.390;13.028;2023-07-13T14:46:30;27.50;99.90
22578;DHT22;11455;52.390;13.028;2023-07-13T14:49:01;27.60;99.90
22578;DHT22;11455;52.390;13.028;2023-07-13T14:51:27;27.60;99.90
22578;DHT22;11455;52.390;13.028;2023-07-13T14:53:53;27.60;99.90
22578;DHT22;11455;52.390;13.028;2023-07-13T14:56:19;27.50;99.90
22578;DHT22;11455;52.390;13.028;2023-07-13T14:58:45;27.60;99.90
22578;DHT22;11455;52.390;13.028;2023-07-13T15:01:12;27.60;99.90
22578;DHT22;11455;52.390;13.028;2023-07-13T15:03:40;27.60;99.90
22578;DHT22;11455;52.390;13.028;2023-07-13T15:06:09;27.80;99.90
22578;DHT22;11455;52.390;13.028;2023-07-13T15:08:38;28.00;99.90
22578;DHT22;11455;52.390;13.028;2023-07-13T15:11:04;27.90;99.90
22578;DHT22;11455;52.390;13.028;2023-07-13T15:13:30;28.00;99.90
22578;DHT22;11455;52.390;13.028;2023-07-13T15:15:56;28.00;99.90
22578;DHT22;11455;52.390;13.028;2023-07-13T15:18:22;28.00;99.90
22578;DHT22;11455;52.390;13.028;2023-07-13T15:20:49;28.00;99.90
22578;DHT22;11455;52.390;13.028;2023-07-13T15:23:16;27.90;99.90
22578;DHT22;11455;52.390;13.028;2023-07-13T15:25:42;27.80;99.90
22578;DHT22;11455;52.390;13.028;2023-07-13T15:28:09;27.90;99.90
22578;DHT22;11455;52.390;13.028;2023-07-13T15:30:42;28.00;99.90
22578;DHT22;11455;52.390;13.028;2023-07-13T15:33:15;28.00;99.90
22578;DHT22;11455;52.390;13.028;2023-07-13T15:35:42;27.90;99.90
22578;DHT22;11455;52.390;13.028;2023-07-13T15:38:19;27.90;99.90
22578;DHT22;11455;52.390;13.028;2023-07-13T15:40:48;27.70;99.90
22578;DHT22;11455;52.390;13.028;2023-07-13T15:43:16;27.60;99.90
22578;DHT22;11455;52.390;13.028;2023-07-13T15:45:42;27.70;99.90
22578;DHT22;11455;52.390;13.028;2023-07-13T15:50:47;27.80;99.90
22578;DHT22;11455;52.390;13.028;2023-07-13T15:53:14;27.90;99.90
22578;DHT22;11455;52.390;13.028;2023-07-13T15:55:41;27.90;99.90
22578;DHT22;11455;52.390;13.028;2023-07-13T15:58:09;27.80;99.90
22578;DHT22;11455;52.390;13.028;2023-07-13T16:00:36;27.70;99.90
22578;DHT22;11455;52.390;13.028;2023-07-13T16:03:02;27.80;99.90
22578;DHT22;11455;52.390;13.028;2023-07-13T16:05:27;27.80;99.90
22578;DHT22;11455;52.390;13.028;2023-07-13T16:07:53;27.80;99.90
22578;DHT22;11455;52.390;13.028;2023-07-13T16:10:24;27.80;99.90
22578;DHT22;11455;52.390;13.028;2023-07-13T16:12:51;27.70;99.90
22578;DHT22;11455;52.390;13.028;2023-07-13T16:15:18;27.80;99.90
22578;DHT22;11455;52.390;13.028;2023-07-13T16:17:44;27.70;99.90
22578;DHT22;11455;52.390;13.028;2023-07-13T16:20:10;27.60;99.90
22578;DHT22;11455;52.390;13.028;2023-07-13T16:22:37;27.40;99.90